James Turecamo — WDC7565 — position and weather

sailwx.info

Track history (hours):
 
Tides and Currents Weather Stations Pressure Air Temp Water Temp Dewpoint Dewpoint Depression Visibility Wind Speed Wind Dir Waves Ship Positions

James Turecamo

More information available from US FCC via Universal Licensing System and Coast Guard Vessel Documentation Center.

Last reported at 2014-Jul-31 06:33 UTC. Time now 2014-Jul-31 07:32 UTC.
Position N 40°38' W 074°08'.

Length 27 m; draft 4.5 m.

Type: Tug. MMSI: 367073380.

Date/timePositionNaut miles runAvg speedWind from/ knotsBaromVisibWave heightAir tempDewpointWater temp
2014-Jul-31 06:33N 40°38' W 074°08'0 0.0
2014-Jul-31 05:33N 40°38' W 074°08'0 0.0
2014-Jul-31 04:33N 40°38' W 074°08'0 0.0
2014-Jul-31 03:33N 40°38' W 074°08'0 0.0
2014-Jul-31 02:33N 40°38' W 074°08'0 0.0
2014-Jul-31 01:33N 40°38' W 074°08'0 0.0
2014-Jul-31 00:33N 40°38' W 074°08'0 0.0
2014-Jul-30 23:33N 40°38' W 074°08'3 3.3
2014-Jul-30 22:31N 40°38' W 074°12'5 5.7
2014-Jul-30 21:33N 40°39' W 074°05'0 0.1
2014-Jul-30 20:34N 40°39' W 074°05'2 2.1
2014-Jul-30 19:31N 40°38' W 074°08'0 0.0
2014-Jul-30 18:33N 40°38' W 074°08'0 0.0
2014-Jul-30 17:33N 40°38' W 074°08'0 0.0
2014-Jul-30 16:33N 40°38' W 074°08'0 0.0
2014-Jul-30 15:33N 40°38' W 074°08'0 0.0
2014-Jul-30 14:33N 40°38' W 074°08'0 0.0
2014-Jul-30 13:33N 40°38' W 074°08'0 0.0
2014-Jul-30 12:33N 40°38' W 074°08'0 0.0
2014-Jul-30 11:33N 40°38' W 074°08'0 0.0
2014-Jul-30 10:33N 40°38' W 074°08'0 0.0
2014-Jul-30 09:33N 40°38' W 074°08'0 0.0
2014-Jul-30 08:33N 40°38' W 074°08'0 0.0
2014-Jul-30 07:33N 40°38' W 074°08'4 3.5
2014-Jul-30 06:30N 40°37' W 074°03'1 0.8
2014-Jul-30 05:33N 40°36' W 074°03'2 2.1
2014-Jul-30 04:33N 40°38' W 074°04'3 2.8
2014-Jul-30 03:32N 40°38' W 074°08'0 0.0
2014-Jul-30 02:33N 40°38' W 074°08'0 0.0
2014-Jul-30 01:33N 40°38' W 074°08'0 0.0
2014-Jul-30 00:33N 40°38' W 074°08'0 0.0
2014-Jul-29 23:33N 40°38' W 074°08'0 0.0
2014-Jul-29 22:31N 40°38' W 074°08'3 2.5
2014-Jul-29 21:17N 40°41' W 074°08'3 3.9
2014-Jul-29 20:31N 40°38' W 074°08'0 0.0
2014-Jul-29 19:29N 40°38' W 074°08'0 0.0
2014-Jul-29 18:27N 40°38' W 074°08'0 0.0
2014-Jul-29 17:33N 40°38' W 074°08'0 0.0
2014-Jul-29 16:33N 40°38' W 074°08'0 0.0
2014-Jul-29 15:33N 40°38' W 074°08'0 0.0
2014-Jul-29 14:27N 40°38' W 074°08'0 0.0
2014-Jul-29 13:33N 40°38' W 074°08'0 0.0
2014-Jul-29 12:33N 40°38' W 074°08'0 0.0
2014-Jul-29 11:33N 40°38' W 074°08'0 0.0
2014-Jul-29 10:33N 40°38' W 074°08'0 0.0
2014-Jul-29 09:33N 40°38' W 074°08'0 0.0
2014-Jul-29 05:15N 40°38' W 074°08'0 0.0
2014-Jul-29 04:32N 40°38' W 074°08'0 0.0
2014-Jul-29 03:30N 40°38' W 074°08'0 0.0
2014-Jul-29 02:29N 40°38' W 074°08'0 0.0
2014-Jul-29 01:24N 40°38' W 074°08'0 0.0
2014-Jul-29 00:32N 40°38' W 074°08'0 0.0
2014-Jul-28 23:31N 40°38' W 074°08'0 0.0
2014-Jul-28 21:27N 40°38' W 074°08'0 0.0
2014-Jul-28 20:31N 40°38' W 074°08'0 0.2
2014-Jul-28 19:34N 40°39' W 074°08'7 1.5
2014-Jul-28 15:07N 40°45' W 074°05'1 2.6
2014-Jul-28 14:33N 40°44' W 074°06'1 1.3
2014-Jul-28 13:33N 40°43' W 074°07'4 4.0
2014-Jul-28 12:27N 40°38' W 074°08'0 0.0
2014-Jul-28 11:27N 40°38' W 074°08'0 0.0
2014-Jul-28 10:33N 40°38' W 074°08'4 4.1
2014-Jul-28 09:28N 40°36' W 074°12'1 0.6
2014-Jul-28 08:31N 40°35' W 074°12'2 0.5
2014-Jul-28 04:15N 40°33' W 074°14'6 3.3
2014-Jul-28 02:32N 40°39' W 074°11'3 2.8
2014-Jul-28 01:33N 40°38' W 074°08'0 0.0
2014-Jul-28 00:33N 40°38' W 074°08'0 0.0
2014-Jul-27 23:33N 40°38' W 074°08'2 2.3
2014-Jul-27 22:33N 40°41' W 074°08'1 0.7
2014-Jul-27 21:30N 40°41' W 074°08'3 2.9
2014-Jul-27 20:27N 40°38' W 074°08'0 0.0
2014-Jul-27 19:19N 40°38' W 074°08'0 0.0
2014-Jul-27 18:30N 40°38' W 074°08'0 0.0
2014-Jul-27 17:33N 40°38' W 074°08'0 0.0
2014-Jul-27 16:29N 40°38' W 074°08'0 0.0
2014-Jul-27 15:13N 40°38' W 074°08'0 0.0
2014-Jul-27 14:33N 40°38' W 074°08'0 0.0
2014-Jul-27 13:32N 40°38' W 074°08'0 0.0
2014-Jul-27 12:33N 40°38' W 074°08'0 0.0
2014-Jul-27 11:33N 40°38' W 074°08'0 0.0
2014-Jul-27 10:33N 40°38' W 074°08'0 0.0
2014-Jul-27 09:29N 40°38' W 074°08'2 1.1
2014-Jul-27 07:33N 40°39' W 074°05'2 1.9
2014-Jul-27 06:32N 40°39' W 074°08'0 0.1
2014-Jul-27 05:33N 40°38' W 074°08'2 1.4
2014-Jul-27 04:31N 40°39' W 074°06'1 1.5
2014-Jul-27 03:33N 40°39' W 074°08'0 0.1
2014-Jul-27 02:33N 40°38' W 074°08'0 0.0
2014-Jul-27 01:33N 40°38' W 074°08'0 0.0
2014-Jul-27 00:09N 40°38' W 074°08'0 0.0
2014-Jul-26 23:33N 40°38' W 074°08'3 2.8
2014-Jul-26 22:33N 40°41' W 074°08'0 0.3
2014-Jul-26 21:24N 40°42' W 074°08'3 3.7
2014-Jul-26 20:33N 40°38' W 074°08'0 0.0
2014-Jul-26 19:33N 40°38' W 074°08'0 0.0
2014-Jul-26 18:33N 40°38' W 074°08'0 0.0
2014-Jul-26 17:33N 40°38' W 074°08'0 0.0
2014-Jul-26 16:32N 40°38' W 074°08'0 0.0
2014-Jul-26 15:33N 40°38' W 074°08'0 0.0
2014-Jul-26 14:33N 40°38' W 074°08'3 3.1
2014-Jul-26 13:33N 40°39' W 074°04'2 2.2
2014-Jul-26 12:34N 40°40' W 074°01'3 3.1
2014-Jul-26 11:34N 40°39' W 074°05'3 2.8
2014-Jul-26 10:33N 40°38' W 074°09'3 1.9
2014-Jul-26 09:13N 40°38' W 074°12'3 4.8
2014-Jul-26 08:33N 40°38' W 074°08'0 0.0
2014-Jul-26 07:33N 40°38' W 074°08'0 0.0
2014-Jul-26 06:33N 40°38' W 074°08'0 0.0
2014-Jul-26 05:33N 40°38' W 074°08'0 0.0
2014-Jul-26 04:33N 40°38' W 074°08'0 0.0
2014-Jul-26 03:33N 40°38' W 074°08'0 0.0
2014-Jul-26 02:33N 40°38' W 074°08'0 0.0
2014-Jul-26 01:32N 40°38' W 074°08'0 0.0
2014-Jul-26 00:33N 40°38' W 074°08'0 0.0
2014-Jul-25 23:33N 40°38' W 074°08'0 0.0
2014-Jul-25 22:30N 40°38' W 074°08'0 0.0
2014-Jul-25 21:33N 40°38' W 074°08'0 0.0
2014-Jul-25 20:32N 40°38' W 074°08'0 0.0
2014-Jul-25 19:33N 40°38' W 074°08'0 0.0
2014-Jul-25 18:33N 40°38' W 074°08'0 0.0
2014-Jul-25 17:33N 40°38' W 074°08'4 3.9
2014-Jul-25 16:33N 40°37' W 074°03'4 3.5
2014-Jul-25 15:33N 40°39' W 074°07'1 0.6
2014-Jul-25 14:33N 40°38' W 074°08'0 0.0
2014-Jul-25 13:33N 40°38' W 074°08'0 0.0
2014-Jul-25 12:33N 40°38' W 074°08'0 0.0
2014-Jul-25 11:33N 40°38' W 074°08'0 0.0
2014-Jul-25 10:33N 40°38' W 074°08'0 0.0
2014-Jul-25 09:33N 40°38' W 074°08'0 0.0
2014-Jul-25 08:33N 40°38' W 074°08'0 0.0
2014-Jul-25 07:33N 40°38' W 074°08'0 0.0
2014-Jul-25 06:33N 40°38' W 074°08'0 0.0
2014-Jul-25 05:33N 40°38' W 074°08'0 0.0
2014-Jul-25 04:33N 40°38' W 074°08'0 0.0
2014-Jul-25 03:33N 40°38' W 074°08'0 0.0
2014-Jul-25 02:31N 40°38' W 074°08'0 0.0
2014-Jul-25 01:32N 40°38' W 074°08'0 0.0
2014-Jul-25 00:31N 40°38' W 074°08'0 0.0
2014-Jul-24 22:22N 40°38' W 074°08'0 0.0
2014-Jul-24 19:12N 40°38' W 074°08'0 0.0
2014-Jul-24 18:30N 40°38' W 074°08'0 0.0
2014-Jul-24 17:33N 40°38' W 074°08'0 0.0
2014-Jul-24 16:30N 40°38' W 074°08'0 0.0
2014-Jul-24 15:31N 40°38' W 074°08'0 0.0
2014-Jul-24 14:21N 40°38' W 074°08'0 0.0
2014-Jul-24 13:17N 40°38' W 074°08'0 0.0
2014-Jul-24 12:30N 40°38' W 074°08'0 0.0
2014-Jul-24 11:33N 40°38' W 074°08'0 0.0
2014-Jul-24 10:30N 40°38' W 074°08'1 1.1
2014-Jul-24 09:32N 40°39' W 074°09'2 2.5
2014-Jul-24 08:33N 40°41' W 074°08'3 3.4
2014-Jul-24 07:33N 40°39' W 074°05'1 1.4
2014-Jul-24 06:33N 40°39' W 074°06'1 0.2
2014-Jul-23 23:12N 40°38' W 074°08'5 8.4
2014-Jul-23 22:33N 40°40' W 074°01'4 4.0
2014-Jul-23 21:33N 40°39' W 074°06'1 1.2
2014-Jul-23 20:28N 40°38' W 074°08'0 0.0
2014-Jul-23 19:27N 40°38' W 074°08'0 0.0
2014-Jul-23 18:29N 40°38' W 074°08'0 0.0
2014-Jul-23 17:28N 40°38' W 074°08'0 0.0
2014-Jul-23 16:24N 40°38' W 074°08'0 0.0
2014-Jul-23 15:33N 40°38' W 074°08'5 0.8
2014-Jul-23 09:30N 40°35' W 074°12'5 3.9
2014-Jul-23 08:15N 40°31' W 074°15'9 5.4
2014-Jul-23 06:33N 40°39' W 074°09'1 0.8
2014-Jul-23 05:30N 40°38' W 074°08'0 0.0
2014-Jul-23 04:21N 40°38' W 074°08'0 0.0
2014-Jul-23 03:27N 40°38' W 074°08'0 0.0
2014-Jul-23 02:33N 40°38' W 074°08'0 0.0
2014-Jul-23 01:33N 40°38' W 074°08'0 0.0
2014-Jul-23 00:23N 40°38' W 074°08'0 0.1
2014-Jul-22 23:25N 40°38' W 074°08'8 8.8
2014-Jul-22 22:29N 40°32' W 074°15'8 1.2
2014-Jul-22 15:32N 40°38' W 074°08'0 0.0
2014-Jul-22 09:14N 40°38' W 074°08'0 0.0
2014-Jul-22 08:21N 40°38' W 074°08'0 0.0
2014-Jul-22 07:32N 40°38' W 074°08'0 0.0
2014-Jul-22 06:28N 40°38' W 074°08'0 0.0
2014-Jul-22 05:31N 40°38' W 074°08'0 0.0
2014-Jul-22 03:11N 40°38' W 074°08'0 0.0
2014-Jul-22 02:29N 40°38' W 074°08'0 0.0
2014-Jul-22 01:30N 40°38' W 074°08'0 0.0
2014-Jul-22 00:32N 40°38' W 074°08'0 0.0
2014-Jul-21 23:14N 40°38' W 074°08'0 0.0
2014-Jul-21 22:33N 40°38' W 074°08'0 0.0
2014-Jul-21 21:30N 40°38' W 074°08'0 0.0
2014-Jul-21 20:28N 40°38' W 074°08'0 0.0
2014-Jul-21 19:12N 40°38' W 074°08'0 0.0
2014-Jul-21 18:30N 40°38' W 074°08'4 3.9
2014-Jul-21 17:30N 40°36' W 074°12'3 2.7
2014-Jul-21 16:16N 40°33' W 074°15'0 0.0
2014-Jul-21 15:32N 40°33' W 074°15'5 5.1
2014-Jul-21 14:33N 40°38' W 074°12'8 1.4
2014-Jul-21 09:08N 40°44' W 074°06'2 2.9
2014-Jul-21 08:33N 40°43' W 074°07'0 0.4
2014-Jul-21 07:33N 40°42' W 074°07'  
Track history (hours):
 
Tides and Currents Weather Stations Pressure Air Temp Water Temp Dewpoint Dewpoint Depression Visibility Wind Speed Wind Dir Waves Ship Positions

James Turecamo

More information available from US FCC via Universal Licensing System and Coast Guard Vessel Documentation Center.

Last reported at 2014-Jul-31 06:33 UTC. Time now 2014-Jul-31 07:32 UTC.
Position N 40°38' W 074°08'.

Length 27 m; draft 4.5 m.

Type: Tug. MMSI: 367073380.

Date/timePositionNaut miles runAvg speedWind from/ knotsBaromVisibWave heightAir tempDewpointWater temp
2014-Jul-31 06:33N 40°38' W 074°08'0 0.0
2014-Jul-31 05:33N 40°38' W 074°08'0 0.0
2014-Jul-31 04:33N 40°38' W 074°08'0 0.0
2014-Jul-31 03:33N 40°38' W 074°08'0 0.0
2014-Jul-31 02:33N 40°38' W 074°08'0 0.0
2014-Jul-31 01:33N 40°38' W 074°08'0 0.0
2014-Jul-31 00:33N 40°38' W 074°08'0 0.0
2014-Jul-30 23:33N 40°38' W 074°08'3 3.3
2014-Jul-30 22:31N 40°38' W 074°12'5 5.7
2014-Jul-30 21:33N 40°39' W 074°05'0 0.1
2014-Jul-30 20:34N 40°39' W 074°05'2 2.1
2014-Jul-30 19:31N 40°38' W 074°08'0 0.0
2014-Jul-30 18:33N 40°38' W 074°08'0 0.0
2014-Jul-30 17:33N 40°38' W 074°08'0 0.0
2014-Jul-30 16:33N 40°38' W 074°08'0 0.0
2014-Jul-30 15:33N 40°38' W 074°08'0 0.0
2014-Jul-30 14:33N 40°38' W 074°08'0 0.0
2014-Jul-30 13:33N 40°38' W 074°08'0 0.0
2014-Jul-30 12:33N 40°38' W 074°08'0 0.0
2014-Jul-30 11:33N 40°38' W 074°08'0 0.0
2014-Jul-30 10:33N 40°38' W 074°08'0 0.0
2014-Jul-30 09:33N 40°38' W 074°08'0 0.0
2014-Jul-30 08:33N 40°38' W 074°08'0 0.0
2014-Jul-30 07:33N 40°38' W 074°08'4 3.5
2014-Jul-30 06:30N 40°37' W 074°03'1 0.8
2014-Jul-30 05:33N 40°36' W 074°03'2 2.1
2014-Jul-30 04:33N 40°38' W 074°04'3 2.8
2014-Jul-30 03:32N 40°38' W 074°08'0 0.0
2014-Jul-30 02:33N 40°38' W 074°08'0 0.0
2014-Jul-30 01:33N 40°38' W 074°08'0 0.0
2014-Jul-30 00:33N 40°38' W 074°08'0 0.0
2014-Jul-29 23:33N 40°38' W 074°08'0 0.0
2014-Jul-29 22:31N 40°38' W 074°08'3 2.5
2014-Jul-29 21:17N 40°41' W 074°08'3 3.9
2014-Jul-29 20:31N 40°38' W 074°08'0 0.0
2014-Jul-29 19:29N 40°38' W 074°08'0 0.0
2014-Jul-29 18:27N 40°38' W 074°08'0 0.0
2014-Jul-29 17:33N 40°38' W 074°08'0 0.0
2014-Jul-29 16:33N 40°38' W 074°08'0 0.0
2014-Jul-29 15:33N 40°38' W 074°08'0 0.0
2014-Jul-29 14:27N 40°38' W 074°08'0 0.0
2014-Jul-29 13:33N 40°38' W 074°08'0 0.0
2014-Jul-29 12:33N 40°38' W 074°08'0 0.0
2014-Jul-29 11:33N 40°38' W 074°08'0 0.0
2014-Jul-29 10:33N 40°38' W 074°08'0 0.0
2014-Jul-29 09:33N 40°38' W 074°08'0 0.0
2014-Jul-29 05:15N 40°38' W 074°08'0 0.0
2014-Jul-29 04:32N 40°38' W 074°08'0 0.0
2014-Jul-29 03:30N 40°38' W 074°08'0 0.0
2014-Jul-29 02:29N 40°38' W 074°08'0 0.0
2014-Jul-29 01:24N 40°38' W 074°08'0 0.0
2014-Jul-29 00:32N 40°38' W 074°08'0 0.0
2014-Jul-28 23:31N 40°38' W 074°08'0 0.0
2014-Jul-28 21:27N 40°38' W 074°08'0 0.0
2014-Jul-28 20:31N 40°38' W 074°08'0 0.2
2014-Jul-28 19:34N 40°39' W 074°08'7 1.5
2014-Jul-28 15:07N 40°45' W 074°05'1 2.6
2014-Jul-28 14:33N 40°44' W 074°06'1 1.3
2014-Jul-28 13:33N 40°43' W 074°07'4 4.0
2014-Jul-28 12:27N 40°38' W 074°08'0 0.0
2014-Jul-28 11:27N 40°38' W 074°08'0 0.0
2014-Jul-28 10:33N 40°38' W 074°08'4 4.1
2014-Jul-28 09:28N 40°36' W 074°12'1 0.6
2014-Jul-28 08:31N 40°35' W 074°12'2 0.5
2014-Jul-28 04:15N 40°33' W 074°14'6 3.3
2014-Jul-28 02:32N 40°39' W 074°11'3 2.8
2014-Jul-28 01:33N 40°38' W 074°08'0 0.0
2014-Jul-28 00:33N 40°38' W 074°08'0 0.0
2014-Jul-27 23:33N 40°38' W 074°08'2 2.3
2014-Jul-27 22:33N 40°41' W 074°08'1 0.7
2014-Jul-27 21:30N 40°41' W 074°08'3 2.9
2014-Jul-27 20:27N 40°38' W 074°08'0 0.0
2014-Jul-27 19:19N 40°38' W 074°08'0 0.0
2014-Jul-27 18:30N 40°38' W 074°08'0 0.0
2014-Jul-27 17:33N 40°38' W 074°08'0 0.0
2014-Jul-27 16:29N 40°38' W 074°08'0 0.0
2014-Jul-27 15:13N 40°38' W 074°08'0 0.0
2014-Jul-27 14:33N 40°38' W 074°08'0 0.0
2014-Jul-27 13:32N 40°38' W 074°08'0 0.0
2014-Jul-27 12:33N 40°38' W 074°08'0 0.0
2014-Jul-27 11:33N 40°38' W 074°08'0 0.0
2014-Jul-27 10:33N 40°38' W 074°08'0 0.0
2014-Jul-27 09:29N 40°38' W 074°08'2 1.1
2014-Jul-27 07:33N 40°39' W 074°05'2 1.9
2014-Jul-27 06:32N 40°39' W 074°08'0 0.1
2014-Jul-27 05:33N 40°38' W 074°08'2 1.4
2014-Jul-27 04:31N 40°39' W 074°06'1 1.5
2014-Jul-27 03:33N 40°39' W 074°08'0 0.1
2014-Jul-27 02:33N 40°38' W 074°08'0 0.0
2014-Jul-27 01:33N 40°38' W 074°08'0 0.0
2014-Jul-27 00:09N 40°38' W 074°08'0 0.0
2014-Jul-26 23:33N 40°38' W 074°08'3 2.8
2014-Jul-26 22:33N 40°41' W 074°08'0 0.3
2014-Jul-26 21:24N 40°42' W 074°08'3 3.7
2014-Jul-26 20:33N 40°38' W 074°08'0 0.0
2014-Jul-26 19:33N 40°38' W 074°08'0 0.0
2014-Jul-26 18:33N 40°38' W 074°08'0 0.0
2014-Jul-26 17:33N 40°38' W 074°08'0 0.0
2014-Jul-26 16:32N 40°38' W 074°08'0 0.0
2014-Jul-26 15:33N 40°38' W 074°08'0 0.0
2014-Jul-26 14:33N 40°38' W 074°08'3 3.1
2014-Jul-26 13:33N 40°39' W 074°04'2 2.2
2014-Jul-26 12:34N 40°40' W 074°01'3 3.1
2014-Jul-26 11:34N 40°39' W 074°05'3 2.8
2014-Jul-26 10:33N 40°38' W 074°09'3 1.9
2014-Jul-26 09:13N 40°38' W 074°12'3 4.8
2014-Jul-26 08:33N 40°38' W 074°08'0 0.0
2014-Jul-26 07:33N 40°38' W 074°08'0 0.0
2014-Jul-26 06:33N 40°38' W 074°08'0 0.0
2014-Jul-26 05:33N 40°38' W 074°08'0 0.0
2014-Jul-26 04:33N 40°38' W 074°08'0 0.0
2014-Jul-26 03:33N 40°38' W 074°08'0 0.0
2014-Jul-26 02:33N 40°38' W 074°08'0 0.0
2014-Jul-26 01:32N 40°38' W 074°08'0 0.0
2014-Jul-26 00:33N 40°38' W 074°08'0 0.0
2014-Jul-25 23:33N 40°38' W 074°08'0 0.0
2014-Jul-25 22:30N 40°38' W 074°08'0 0.0
2014-Jul-25 21:33N 40°38' W 074°08'0 0.0
2014-Jul-25 20:32N 40°38' W 074°08'0 0.0
2014-Jul-25 19:33N 40°38' W 074°08'0 0.0
2014-Jul-25 18:33N 40°38' W 074°08'0 0.0
2014-Jul-25 17:33N 40°38' W 074°08'4 3.9
2014-Jul-25 16:33N 40°37' W 074°03'4 3.5
2014-Jul-25 15:33N 40°39' W 074°07'1 0.6
2014-Jul-25 14:33N 40°38' W 074°08'0 0.0
2014-Jul-25 13:33N 40°38' W 074°08'0 0.0
2014-Jul-25 12:33N 40°38' W 074°08'0 0.0
2014-Jul-25 11:33N 40°38' W 074°08'0 0.0
2014-Jul-25 10:33N 40°38' W 074°08'0 0.0
2014-Jul-25 09:33N 40°38' W 074°08'0 0.0
2014-Jul-25 08:33N 40°38' W 074°08'0 0.0
2014-Jul-25 07:33N 40°38' W 074°08'0 0.0
2014-Jul-25 06:33N 40°38' W 074°08'0 0.0
2014-Jul-25 05:33N 40°38' W 074°08'0 0.0
2014-Jul-25 04:33N 40°38' W 074°08'0 0.0
2014-Jul-25 03:33N 40°38' W 074°08'0 0.0
2014-Jul-25 02:31N 40°38' W 074°08'0 0.0
2014-Jul-25 01:32N 40°38' W 074°08'0 0.0
2014-Jul-25 00:31N 40°38' W 074°08'0 0.0
2014-Jul-24 22:22N 40°38' W 074°08'0 0.0
2014-Jul-24 19:12N 40°38' W 074°08'0 0.0
2014-Jul-24 18:30N 40°38' W 074°08'0 0.0
2014-Jul-24 17:33N 40°38' W 074°08'0 0.0
2014-Jul-24 16:30N 40°38' W 074°08'0 0.0
2014-Jul-24 15:31N 40°38' W 074°08'0 0.0
2014-Jul-24 14:21N 40°38' W 074°08'0 0.0
2014-Jul-24 13:17N 40°38' W 074°08'0 0.0
2014-Jul-24 12:30N 40°38' W 074°08'0 0.0
2014-Jul-24 11:33N 40°38' W 074°08'0 0.0
2014-Jul-24 10:30N 40°38' W 074°08'1 1.1
2014-Jul-24 09:32N 40°39' W 074°09'2 2.5
2014-Jul-24 08:33N 40°41' W 074°08'3 3.4
2014-Jul-24 07:33N 40°39' W 074°05'1 1.4
2014-Jul-24 06:33N 40°39' W 074°06'1 0.2
2014-Jul-23 23:12N 40°38' W 074°08'5 8.4
2014-Jul-23 22:33N 40°40' W 074°01'4 4.0
2014-Jul-23 21:33N 40°39' W 074°06'1 1.2
2014-Jul-23 20:28N 40°38' W 074°08'0 0.0
2014-Jul-23 19:27N 40°38' W 074°08'0 0.0
2014-Jul-23 18:29N 40°38' W 074°08'0 0.0
2014-Jul-23 17:28N 40°38' W 074°08'0 0.0
2014-Jul-23 16:24N 40°38' W 074°08'0 0.0
2014-Jul-23 15:33N 40°38' W 074°08'5 0.8
2014-Jul-23 09:30N 40°35' W 074°12'5 3.9
2014-Jul-23 08:15N 40°31' W 074°15'9 5.4
2014-Jul-23 06:33N 40°39' W 074°09'1 0.8
2014-Jul-23 05:30N 40°38' W 074°08'0 0.0
2014-Jul-23 04:21N 40°38' W 074°08'0 0.0
2014-Jul-23 03:27N 40°38' W 074°08'0 0.0
2014-Jul-23 02:33N 40°38' W 074°08'0 0.0
2014-Jul-23 01:33N 40°38' W 074°08'0 0.0
2014-Jul-23 00:23N 40°38' W 074°08'0 0.1
2014-Jul-22 23:25N 40°38' W 074°08'8 8.8
2014-Jul-22 22:29N 40°32' W 074°15'8 1.2
2014-Jul-22 15:32N 40°38' W 074°08'0 0.0
2014-Jul-22 09:14N 40°38' W 074°08'0 0.0
2014-Jul-22 08:21N 40°38' W 074°08'0 0.0
2014-Jul-22 07:32N 40°38' W 074°08'0 0.0
2014-Jul-22 06:28N 40°38' W 074°08'0 0.0
2014-Jul-22 05:31N 40°38' W 074°08'0 0.0
2014-Jul-22 03:11N 40°38' W 074°08'0 0.0
2014-Jul-22 02:29N 40°38' W 074°08'0 0.0
2014-Jul-22 01:30N 40°38' W 074°08'0 0.0
2014-Jul-22 00:32N 40°38' W 074°08'0 0.0
2014-Jul-21 23:14N 40°38' W 074°08'0 0.0
2014-Jul-21 22:33N 40°38' W 074°08'0 0.0
2014-Jul-21 21:30N 40°38' W 074°08'0 0.0
2014-Jul-21 20:28N 40°38' W 074°08'0 0.0
2014-Jul-21 19:12N 40°38' W 074°08'0 0.0
2014-Jul-21 18:30N 40°38' W 074°08'4 3.9
2014-Jul-21 17:30N 40°36' W 074°12'3 2.7
2014-Jul-21 16:16N 40°33' W 074°15'0 0.0
2014-Jul-21 15:32N 40°33' W 074°15'5 5.1
2014-Jul-21 14:33N 40°38' W 074°12'8 1.4
2014-Jul-21 09:08N 40°44' W 074°06'2 2.9
2014-Jul-21 08:33N 40°43' W 074°07'0 0.4
2014-Jul-21 07:33N 40°42' W 074°07'  

Dump ship's entire track history